createdAt,value
2022-08-28T00:01:10.943Z,101262.63
2022-08-28T00:04:14.010Z,101265.28
2022-08-28T00:07:17.175Z,101263.53
2022-08-28T00:10:22.727Z,101258.19
2022-08-28T00:13:26.346Z,101260.88
2022-08-28T00:16:30.563Z,101261.75
2022-08-28T00:19:38.498Z,101263.53
2022-08-28T00:22:42.761Z,101255.50
2022-08-28T00:25:47.239Z,101263.72
2022-08-28T00:28:49.360Z,101266.47
2022-08-28T00:31:52.599Z,101263.13
2022-08-28T00:34:55.622Z,101261.41
2022-08-28T00:37:58.641Z,101249.81
2022-08-28T00:41:04.934Z,101256.97
2022-08-28T00:44:12.718Z,101254.41
2022-08-28T00:47:15.696Z,101256.97
2022-08-28T00:50:23.965Z,101249.09
2022-08-28T00:53:27.111Z,101252.75
2022-08-28T00:56:38.829Z,101260.88
2022-08-28T00:59:41.984Z,101264.38
2022-08-28T01:02:45.042Z,101268.91
2022-08-28T01:05:49.282Z,101261.81
2022-08-28T01:08:53.843Z,101264.56
2022-08-28T01:12:03.174Z,101262.78
2022-08-28T01:15:13.944Z,101266.28
2022-08-28T01:18:17.812Z,101260.09
2022-08-28T01:21:29.310Z,101273.47
2022-08-28T01:24:35.576Z,101263.69
2022-08-28T01:27:41.841Z,101264.66
2022-08-28T01:30:48.647Z,101266.47
2022-08-28T01:33:52.541Z,101266.56
2022-08-28T01:36:55.673Z,101263.16
2022-08-28T01:40:03.330Z,101269.41
2022-08-28T01:43:12.574Z,101264.13
2022-08-28T01:46:15.673Z,101267.66
2022-08-28T01:49:19.209Z,101272.16
2022-08-28T01:52:24.138Z,101275.69
2022-08-28T01:55:30.961Z,101272.06
2022-08-28T01:58:38.285Z,101279.22
2022-08-28T02:01:43.005Z,101279.31
2022-08-28T02:04:48.238Z,101282.88
2022-08-28T02:07:52.102Z,101281.22
2022-08-28T02:10:56.490Z,101282.94
2022-08-28T02:14:00.963Z,101279.41
2022-08-28T02:17:03.968Z,101280.25
2022-08-28T02:20:08.031Z,101273.09
2022-08-28T02:23:11.267Z,101272.31
2022-08-28T02:26:16.195Z,101274.06
2022-08-28T02:29:19.282Z,101275.00
2022-08-28T02:32:22.441Z,101273.34
2022-08-28T02:35:25.735Z,101268.94
2022-08-28T02:38:29.591Z,101269.88
2022-08-28T02:41:35.473Z,101266.28
2022-08-28T02:44:38.518Z,101264.53
2022-08-28T02:47:43.462Z,101262.81
2022-08-28T02:50:47.171Z,101265.56
2022-08-28T02:53:52.111Z,101271.88
2022-08-28T02:56:57.071Z,101278.16
2022-08-28T03:00:00.043Z,101277.22
2022-08-28T03:03:03.620Z,101276.34
2022-08-28T03:06:07.578Z,101278.16
2022-08-28T03:09:10.726Z,101269.34
2022-08-28T03:12:17.007Z,101272.13
2022-08-28T03:15:20.714Z,101266.91
2022-08-28T03:18:24.512Z,101282.13
2022-08-28T03:21:28.538Z,101283.84
2022-08-28T03:24:31.542Z,101282.13
2022-08-28T03:27:35.990Z,101283.84
2022-08-28T03:30:39.123Z,101284.81
2022-08-28T03:33:43.023Z,101286.50
2022-08-28T03:36:46.254Z,101287.47
2022-08-28T03:39:49.298Z,101284.81
2022-08-28T03:42:53.829Z,101288.31
2022-08-28T03:45:59.370Z,101285.69
2022-08-28T03:49:03.703Z,101285.69
2022-08-28T03:52:06.950Z,101287.47
2022-08-28T03:55:12.313Z,101296.41
2022-08-28T03:58:18.970Z,101291.06
2022-08-28T04:01:22.798Z,101292.00
2022-08-28T04:04:25.801Z,101306.31
2022-08-28T04:07:28.874Z,101309.19
2022-08-28T04:10:33.092Z,101311.84
2022-08-28T04:13:37.527Z,101306.50
2022-08-28T04:16:41.510Z,101311.91
2022-08-28T04:19:45.110Z,101320.81
2022-08-28T04:22:48.401Z,101320.03
2022-08-28T04:25:58.362Z,101316.47
2022-08-28T04:29:02.746Z,101320.16
2022-08-28T04:32:05.855Z,101330.03
2022-08-28T04:35:12.033Z,101330.03
2022-08-28T04:38:15.250Z,101328.19
2022-08-28T04:41:18.778Z,101330.03
2022-08-28T04:44:23.130Z,101334.50
2022-08-28T04:47:26.130Z,101334.50
2022-08-28T04:50:29.102Z,101332.75
2022-08-28T04:53:32.879Z,101336.41
2022-08-28T04:56:35.857Z,101331.06
2022-08-28T04:59:41.932Z,101338.22
2022-08-28T05:02:45.022Z,101340.97
2022-08-28T05:05:51.734Z,101338.28
2022-08-28T05:08:55.297Z,101343.56
2022-08-28T05:11:58.581Z,101340.78
2022-08-28T05:15:03.073Z,101350.56
2022-08-28T05:18:06.280Z,101347.88
2022-08-28T05:21:14.510Z,101350.56
2022-08-28T05:24:18.129Z,101355.91
2022-08-28T05:27:21.503Z,101358.69
2022-08-28T05:30:25.929Z,101356.06
2022-08-28T05:33:28.965Z,101359.69
2022-08-28T05:36:34.367Z,101361.50
2022-08-28T05:39:37.345Z,101349.94
2022-08-28T05:42:40.275Z,101362.44
2022-08-28T05:45:44.848Z,101359.94
2022-08-28T05:48:48.679Z,101362.59
2022-08-28T05:51:52.444Z,101364.41
2022-08-28T05:54:55.459Z,101367.06
2022-08-28T05:58:18.682Z,101362.69
2022-08-28T06:01:28.219Z,101361.72
2022-08-28T06:04:32.048Z,101362.59
2022-08-28T06:07:35.162Z,101359.06
2022-08-28T06:10:44.750Z,101356.38
2022-08-28T06:13:50.834Z,101360.00
2022-08-28T06:16:57.014Z,101361.72
2022-08-28T06:19:59.963Z,101352.91
2022-08-28T06:23:02.909Z,101368.97
2022-08-28T06:26:07.309Z,101368.09
2022-08-28T06:29:12.518Z,101367.25
2022-08-28T06:32:17.036Z,101375.28
2022-08-28T06:35:20.174Z,101378.88
2022-08-28T06:38:25.493Z,101383.34
2022-08-28T06:41:32.083Z,101375.34
2022-08-28T06:44:35.146Z,101381.69
2022-08-28T06:47:39.745Z,101386.19
2022-08-28T06:50:46.784Z,101392.56
2022-08-28T06:53:49.919Z,101390.81
2022-08-28T06:56:54.192Z,101402.31
2022-08-28T06:59:57.414Z,101399.63
2022-08-28T07:03:02.196Z,101405.84
2022-08-28T07:06:07.471Z,101410.31
2022-08-28T07:09:12.437Z,101416.78
2022-08-28T07:12:15.526Z,101416.84
2022-08-28T07:15:19.237Z,101411.50
2022-08-28T07:18:23.742Z,101414.19
2022-08-28T07:21:27.428Z,101419.63
2022-08-28T07:24:30.535Z,101415.19
2022-08-28T07:27:33.495Z,101416.16
2022-08-28T07:30:36.505Z,101418.81
2022-08-28T07:33:42.007Z,101425.03
2022-08-28T07:36:45.361Z,101425.91
2022-08-28T07:39:48.502Z,101439.25
2022-08-28T07:43:09.149Z,101446.34
2022-08-28T07:46:12.984Z,101438.34
2022-08-28T07:49:17.643Z,101448.06
2022-08-28T07:52:20.600Z,101450.75
2022-08-28T07:55:23.610Z,101446.28
2022-08-28T07:58:27.036Z,101449.03
2022-08-28T08:01:31.478Z,101447.16
2022-08-28T08:04:36.249Z,101449.81
2022-08-28T08:07:39.933Z,101443.59
2022-08-28T08:10:46.715Z,101449.81
2022-08-28T08:13:50.949Z,101454.22
2022-08-28T08:16:54.153Z,101458.63
2022-08-28T08:19:58.558Z,101464.84
2022-08-28T08:23:01.583Z,101466.56
2022-08-28T08:26:07.027Z,101459.50
2022-08-28T08:29:10.119Z,101466.66
2022-08-28T08:32:13.585Z,101472.00
2022-08-28T08:35:18.005Z,101474.59
2022-08-28T08:38:21.117Z,101472.09
2022-08-28T08:41:30.482Z,101475.59
2022-08-28T08:44:35.764Z,101473.94
2022-08-28T08:47:44.652Z,101474.81
2022-08-28T08:50:49.782Z,101471.22
2022-08-28T08:53:59.831Z,101474.69
2022-08-28T08:57:03.793Z,101477.34
2022-08-28T09:00:12.265Z,101476.41
2022-08-28T09:03:23.865Z,101471.94
2022-08-28T09:06:40.702Z,101479.03
2022-08-28T09:09:53.333Z,101475.47
2022-08-28T09:13:07.782Z,101482.72
2022-08-28T09:16:22.136Z,101474.69
2022-08-28T09:19:25.269Z,101481.75
2022-08-28T09:22:30.137Z,101488.84
2022-08-28T09:25:56.605Z,101479.88
2022-08-28T09:29:06.077Z,101486.97
2022-08-28T09:32:23.689Z,101480.66
2022-08-28T09:35:29.341Z,101485.22
2022-08-28T09:38:33.778Z,101485.22
2022-08-28T09:41:57.487Z,101493.25
2022-08-28T09:45:09.175Z,101499.47
2022-08-28T09:48:24.186Z,101482.63
2022-08-28T09:51:31.353Z,101495.91
2022-08-28T09:54:40.891Z,101485.38
2022-08-28T09:57:47.534Z,101488.13
2022-08-28T10:00:54.854Z,101499.69
2022-08-28T10:04:08.540Z,101497.97
2022-08-28T10:07:18.433Z,101503.34
2022-08-28T10:10:31.559Z,101498.88
2022-08-28T10:13:40.389Z,101505.91
2022-08-28T10:16:53.667Z,101504.22
2022-08-28T10:20:04.519Z,101493.50
2022-08-28T10:23:19.845Z,101494.31
2022-08-28T10:26:34.688Z,101495.13
2022-08-28T10:29:49.625Z,101492.31
2022-08-28T10:33:15.534Z,101501.13
2022-08-28T10:36:33.958Z,101500.25
2022-08-28T10:39:48.789Z,101501.13
2022-08-28T10:43:02.041Z,101500.41
2022-08-28T10:46:07.350Z,101498.59
2022-08-28T10:49:17.504Z,101504.19
2022-08-28T10:52:25.278Z,101508.66
2022-08-28T10:55:34.705Z,101500.63
2022-08-28T10:58:42.326Z,101503.31
2022-08-28T11:01:47.334Z,101496.94
2022-08-28T11:04:53.260Z,101504.09
2022-08-28T11:08:04.098Z,101507.69
2022-08-28T11:11:13.222Z,101514.88
2022-08-28T11:14:27.749Z,101514.00
2022-08-28T11:17:42.085Z,101514.81
2022-08-28T11:20:57.995Z,101513.00
2022-08-28T11:24:09.314Z,101520.06
2022-08-28T11:27:21.978Z,101525.41
2022-08-28T11:30:35.580Z,101522.75
2022-08-28T11:33:41.467Z,101519.19
2022-08-28T11:37:03.527Z,101528.25
2022-08-28T11:40:19.257Z,101523.91
2022-08-28T11:43:39.546Z,101533.81
2022-08-28T11:46:46.150Z,101534.66
2022-08-28T11:49:49.282Z,101532.06
2022-08-28T11:53:46.105Z,101527.88
2022-08-28T11:57:00.331Z,101536.84
2022-08-28T12:00:08.329Z,101531.56
2022-08-28T12:03:15.564Z,101533.28
2022-08-28T12:06:54.444Z,101535.13
2022-08-28T12:10:01.737Z,101536.13
2022-08-28T12:16:12.295Z,101539.00
2022-08-28T12:19:29.305Z,101530.13
2022-08-28T12:22:49.918Z,101524.84
2022-08-28T12:26:01.655Z,101523.06
2022-08-28T12:29:08.959Z,101519.38
2022-08-28T12:32:26.670Z,101530.13
2022-08-28T12:35:31.422Z,101527.59
2022-08-28T12:38:36.311Z,101533.97
2022-08-28T12:41:39.646Z,101530.41
2022-08-28T12:44:42.683Z,101533.28
2022-08-28T12:47:48.451Z,101540.44
2022-08-28T12:50:59.470Z,101540.19
2022-08-28T12:54:08.289Z,101536.72
2022-08-28T12:57:14.594Z,101528.94
2022-08-28T13:00:20.235Z,101536.03
2022-08-28T13:03:23.406Z,101537.84
2022-08-28T13:06:29.637Z,101530.78
2022-08-28T13:09:34.547Z,101524.34
2022-08-28T13:12:54.745Z,101535.25
2022-08-28T13:16:02.032Z,101529.03
2022-08-28T13:19:26.262Z,101520.94
2022-08-28T13:22:34.911Z,101529.06
2022-08-28T13:25:39.767Z,101533.50
2022-08-28T13:28:44.370Z,101527.22
2022-08-28T13:31:57.220Z,101533.63
2022-08-28T13:35:12.949Z,101521.97
2022-08-28T13:38:18.570Z,101533.66
2022-08-28T13:41:23.036Z,101531.09
2022-08-28T13:44:32.113Z,101529.28
2022-08-28T13:47:35.135Z,101532.03
2022-08-28T13:50:40.114Z,101529.41
2022-08-28T13:53:43.156Z,101521.34
2022-08-28T13:56:48.609Z,101526.69
2022-08-28T13:59:55.538Z,101524.94
2022-08-28T14:03:16.196Z,101531.97
2022-08-28T14:06:19.274Z,101527.53
2022-08-28T14:09:27.062Z,101538.09
2022-08-28T14:12:33.082Z,101535.34
2022-08-28T14:15:36.752Z,101542.44
2022-08-28T14:18:39.834Z,101540.69
2022-08-28T14:21:42.978Z,101527.31
2022-08-28T14:24:46.861Z,101534.38
2022-08-28T14:27:51.244Z,101530.63
2022-08-28T14:30:56.161Z,101541.09
2022-08-28T14:33:59.547Z,101543.56
2022-08-28T14:37:02.779Z,101534.53
2022-08-28T14:40:07.342Z,101537.25
2022-08-28T14:43:12.874Z,101531.91
2022-08-28T14:46:16.899Z,101529.25
2022-08-28T14:49:21.113Z,101534.53
2022-08-28T14:52:24.641Z,101536.41
2022-08-28T14:55:28.002Z,101545.22
2022-08-28T14:58:34.110Z,101536.25
2022-08-28T15:01:40.604Z,101540.75
2022-08-28T15:04:44.079Z,101538.94
2022-08-28T15:07:47.016Z,101537.94
2022-08-28T15:10:51.089Z,101538.81
2022-08-28T15:13:58.022Z,101532.50
2022-08-28T15:17:01.063Z,101533.44
2022-08-28T15:20:05.857Z,101528.97
2022-08-28T15:23:09.349Z,101535.16
2022-08-28T15:26:15.585Z,101536.13
2022-08-28T15:29:20.110Z,101537.00
2022-08-28T15:32:23.500Z,101537.06
2022-08-28T15:35:26.582Z,101537.00
2022-08-28T15:38:49.665Z,101535.25
2022-08-28T15:41:51.965Z,101531.69
2022-08-28T15:44:57.071Z,101534.31
2022-08-28T15:48:00.727Z,101533.44
2022-08-28T15:51:03.729Z,101531.56
2022-08-28T15:54:07.254Z,101535.97
2022-08-28T15:57:10.267Z,101536.91
2022-08-28T16:00:16.237Z,101533.38
2022-08-28T16:03:19.390Z,101536.91
2022-08-28T16:06:23.864Z,101538.72
2022-08-28T16:09:26.909Z,101534.25
2022-08-28T16:12:30.218Z,101536.13
2022-08-28T16:15:35.175Z,101540.50
2022-08-28T16:18:38.417Z,101538.72
2022-08-28T16:21:42.617Z,101547.53
2022-08-28T16:24:45.699Z,101541.25
2022-08-28T16:27:48.716Z,101537.72
2022-08-28T16:30:53.694Z,101535.84
2022-08-28T16:33:56.915Z,101541.06
2022-08-28T16:37:00.090Z,101542.75
2022-08-28T16:40:03.809Z,101531.19
2022-08-28T16:43:06.953Z,101539.22
2022-08-28T16:46:13.398Z,101543.63
2022-08-28T16:49:16.679Z,101542.75
2022-08-28T16:52:20.067Z,101537.28
2022-08-28T16:55:23.162Z,101547.09
2022-08-28T16:58:26.298Z,101547.09
2022-08-28T17:01:30.781Z,101545.31
2022-08-28T17:04:33.890Z,101545.22
2022-08-28T17:07:37.049Z,101549.66
2022-08-28T17:10:40.137Z,101551.44
2022-08-28T17:13:43.267Z,101553.16
2022-08-28T17:16:47.721Z,101542.47
2022-08-28T17:19:50.734Z,101549.56
2022-08-28T17:22:52.750Z,101547.78
2022-08-28T17:25:55.797Z,101554.84
2022-08-28T17:28:58.822Z,101553.13
2022-08-28T17:32:05.267Z,101551.28
2022-08-28T17:35:09.286Z,101552.16
2022-08-28T17:38:12.780Z,101547.69
2022-08-28T17:41:15.922Z,101560.97
2022-08-28T17:44:19.012Z,101556.50
2022-08-28T17:47:27.408Z,101567.03
2022-08-28T17:50:33.821Z,101566.91
2022-08-28T17:53:37.238Z,101563.22
2022-08-28T17:56:40.369Z,101566.69
2022-08-28T17:59:43.984Z,101572.84
2022-08-28T18:02:51.813Z,101579.06
2022-08-28T18:05:54.849Z,101579.84
2022-08-28T18:08:58.786Z,101583.41
2022-08-28T18:12:03.077Z,101589.53
2022-08-28T18:15:08.326Z,101596.69
2022-08-28T18:18:13.847Z,101592.13
2022-08-28T18:21:17.354Z,101592.22
2022-08-28T18:24:20.459Z,101598.41
2022-08-28T18:27:23.861Z,101593.94
2022-08-28T18:30:28.206Z,101603.75
2022-08-28T18:33:33.440Z,101603.75
2022-08-28T18:36:36.694Z,101599.38
2022-08-28T18:39:40.843Z,101609.13
2022-08-28T18:42:45.378Z,101603.75
2022-08-28T18:45:48.621Z,101604.72
2022-08-28T18:48:53.897Z,101613.63
2022-08-28T18:51:57.009Z,101614.47
2022-08-28T18:55:02.484Z,101613.66
2022-08-28T18:58:08.175Z,101609.28
2022-08-28T19:01:16.009Z,101614.63
2022-08-28T19:04:20.835Z,101614.63
2022-08-28T19:07:23.834Z,101612.00
2022-08-28T19:10:34.051Z,101618.22
2022-08-28T19:13:38.555Z,101622.69
2022-08-28T19:16:41.569Z,101621.84
2022-08-28T19:19:45.990Z,101631.69
2022-08-28T19:22:49.745Z,101628.94
2022-08-28T19:25:52.763Z,101636.06
2022-08-28T19:28:56.899Z,101643.25
2022-08-28T19:31:59.982Z,101634.44
2022-08-28T19:35:04.834Z,101641.66
2022-08-28T19:38:07.971Z,101643.56
2022-08-28T19:41:12.818Z,101647.16
2022-08-28T19:44:16.047Z,101652.50
2022-08-28T19:47:19.240Z,101657.84
2022-08-28T19:50:23.802Z,101653.47
2022-08-28T19:53:26.842Z,101660.59
2022-08-28T19:56:31.573Z,101658.84
2022-08-28T19:59:35.584Z,101657.97
2022-08-28T20:02:38.643Z,101667.75
2022-08-28T20:05:44.095Z,101669.56
2022-08-28T20:08:47.124Z,101669.56
2022-08-28T20:11:50.533Z,101670.44
2022-08-28T20:14:53.627Z,101673.03
2022-08-28T20:17:57.766Z,101673.97
2022-08-28T20:21:02.178Z,101674.84
2022-08-28T20:24:05.774Z,101673.09
2022-08-28T20:27:08.955Z,101667.75
2022-08-28T20:30:12.881Z,101675.78
2022-08-28T20:33:15.902Z,101682.88
2022-08-28T20:36:21.539Z,101677.53
2022-08-28T20:39:24.980Z,101672.19
2022-08-28T20:42:31.685Z,101682.88
2022-08-28T20:45:34.926Z,101681.13
2022-08-28T20:48:38.304Z,101682.00
2022-08-28T20:52:01.260Z,101674.84
2022-08-28T20:55:05.398Z,101684.59
2022-08-28T20:58:08.455Z,101679.25
2022-08-28T21:01:13.985Z,101677.44
2022-08-28T21:04:17.018Z,101676.56
2022-08-28T21:07:23.296Z,101675.66
2022-08-28T21:10:26.325Z,101680.91
2022-08-28T21:13:29.511Z,101680.75
2022-08-28T21:16:32.621Z,101688.78
2022-08-28T21:19:40.138Z,101678.97
2022-08-28T21:22:45.162Z,101681.63
2022-08-28T21:25:48.486Z,101679.97
2022-08-28T21:28:52.251Z,101680.84
2022-08-28T21:31:55.322Z,101688.88
2022-08-28T21:34:58.508Z,101691.53
2022-08-28T21:38:03.007Z,101691.53
2022-08-28T21:41:09.638Z,101688.94
2022-08-28T21:44:14.112Z,101690.66
2022-08-28T21:47:17.438Z,101688.06
2022-08-28T21:50:20.847Z,101692.63
2022-08-28T21:53:25.548Z,101694.38
2022-08-28T21:56:29.150Z,101689.06
2022-08-28T21:59:37.861Z,101690.91
2022-08-28T22:02:41.166Z,101689.22
2022-08-28T22:05:44.794Z,101694.63
2022-08-28T22:08:49.877Z,101690.22
2022-08-28T22:11:52.887Z,101698.34
2022-08-28T22:14:55.922Z,101701.06
2022-08-28T22:17:58.945Z,101697.53
2022-08-28T22:21:19.906Z,101698.47
2022-08-28T22:24:24.656Z,101697.59
2022-08-28T22:27:27.814Z,101697.59
2022-08-28T22:30:30.909Z,101710.13
2022-08-28T22:33:36.266Z,101714.59
2022-08-28T22:36:39.314Z,101720.88
2022-08-28T22:39:44.067Z,101724.50
2022-08-28T22:42:47.479Z,101722.75
2022-08-28T22:45:50.594Z,101721.03
2022-08-28T22:48:53.842Z,101723.72
2022-08-28T22:51:56.813Z,101722.00
2022-08-28T22:55:01.210Z,101722.91
2022-08-28T22:58:06.342Z,101721.13
2022-08-28T23:01:12.331Z,101724.78
2022-08-28T23:04:17.071Z,101724.78
2022-08-28T23:07:20.181Z,101726.50
2022-08-28T23:10:42.191Z,101730.13
2022-08-28T23:13:47.732Z,101720.34
2022-08-28T23:16:52.078Z,101719.41
2022-08-28T23:19:55.270Z,101724.78
2022-08-28T23:22:58.414Z,101725.59
2022-08-28T23:26:02.926Z,101724.78
2022-08-28T23:29:06.133Z,101716.75
2022-08-28T23:32:09.322Z,101711.44
2022-08-28T23:35:16.342Z,101715.91
2022-08-28T23:38:20.221Z,101712.31
2022-08-28T23:41:24.907Z,101711.44
2022-08-28T23:44:28.671Z,101710.56
2022-08-28T23:47:31.738Z,101713.25
2022-08-28T23:50:34.994Z,101708.84
2022-08-28T23:53:41.274Z,101712.44
2022-08-28T23:56:45.749Z,101713.31
2022-08-28T23:59:48.884Z,101714.31
